createdAt,value
2019-04-27T00:01:55.132Z,6.39
2019-04-27T00:04:32.868Z,6.35
2019-04-27T00:07:03.061Z,6.32
2019-04-27T00:09:50.309Z,6.29
2019-04-27T00:12:16.447Z,6.27
2019-04-27T00:14:48.253Z,6.16
2019-04-27T00:17:20.981Z,6.07
2019-04-27T00:19:53.445Z,5.98
2019-04-27T00:22:29.529Z,5.93
2019-04-27T00:24:58.021Z,5.96
2019-04-27T00:27:26.415Z,5.99
2019-04-27T00:29:54.796Z,5.95
2019-04-27T00:32:23.212Z,5.91
2019-04-27T00:34:53.165Z,5.88
2019-04-27T00:37:33.876Z,5.85
2019-04-27T00:40:04.077Z,5.77
2019-04-27T00:42:33.370Z,5.68
2019-04-27T00:45:02.964Z,5.64
2019-04-27T00:47:34.898Z,5.62
2019-04-27T00:50:03.855Z,5.60
2019-04-27T00:52:34.689Z,5.54
2019-04-27T00:55:03.148Z,5.49
2019-04-27T00:57:45.015Z,5.43
2019-04-27T01:00:27.098Z,5.37
2019-04-27T01:03:00.495Z,5.35
2019-04-27T01:05:30.355Z,5.34
2019-04-27T01:07:58.746Z,5.34
2019-04-27T01:10:27.233Z,5.32
2019-04-27T01:12:55.616Z,5.40
2019-04-27T01:15:24.437Z,5.53
2019-04-27T01:17:52.847Z,5.58
2019-04-27T01:20:21.316Z,5.53
2019-04-27T01:22:49.982Z,5.47
2019-04-27T01:25:19.043Z,5.40
2019-04-27T01:27:51.996Z,5.32
2019-04-27T01:30:34.456Z,5.22
2019-04-27T01:33:02.833Z,5.11
2019-04-27T01:35:31.229Z,5.04
2019-04-27T01:38:00.033Z,5.02
2019-04-27T01:40:29.493Z,5.03
2019-04-27T01:42:58.844Z,5.21
2019-04-27T01:45:29.032Z,5.39
2019-04-27T01:47:57.504Z,5.41
2019-04-27T01:50:25.899Z,5.40
2019-04-27T01:52:54.624Z,5.38
2019-04-27T01:55:23.006Z,5.37
2019-04-27T01:57:51.387Z,5.35
2019-04-27T02:00:30.242Z,5.31
2019-04-27T02:03:00.267Z,5.33
2019-04-27T02:05:33.280Z,5.32
2019-04-27T02:08:01.758Z,5.28
2019-04-27T02:10:30.212Z,5.27
2019-04-27T02:12:58.812Z,5.41
2019-04-27T02:15:27.171Z,5.61
2019-04-27T02:17:55.553Z,5.71
2019-04-27T02:20:23.939Z,5.74
2019-04-27T02:22:52.350Z,5.64
2019-04-27T02:25:21.198Z,5.49
2019-04-27T02:27:51.216Z,5.34
2019-04-27T02:30:21.448Z,5.23
2019-04-27T02:33:12.165Z,5.18
2019-04-27T02:35:41.946Z,5.21
2019-04-27T02:38:10.128Z,5.33
2019-04-27T02:40:59.572Z,5.45
2019-04-27T02:43:45.399Z,5.50
2019-04-27T02:46:13.884Z,5.54
2019-04-27T02:48:55.489Z,5.59
2019-04-27T02:51:17.061Z,5.66
2019-04-27T02:53:55.896Z,5.77
2019-04-27T02:56:24.741Z,5.82
2019-04-27T02:58:53.196Z,5.85
2019-04-27T03:01:23.102Z,5.89
2019-04-27T03:03:51.570Z,5.88
2019-04-27T03:06:20.131Z,5.85
2019-04-27T03:08:52.841Z,5.84
2019-04-27T03:11:20.515Z,5.80
2019-04-27T03:13:52.901Z,5.77
2019-04-27T03:16:39.617Z,5.74
2019-04-27T03:19:18.224Z,5.76
2019-04-27T03:22:02.144Z,5.89
2019-04-27T03:24:49.743Z,5.98
2019-04-27T03:27:20.328Z,5.99
2019-04-27T03:29:49.859Z,5.94
2019-04-27T03:32:22.626Z,5.90
2019-04-27T03:34:52.377Z,5.86
2019-04-27T03:37:20.274Z,5.84
2019-04-27T03:39:49.861Z,5.85
2019-04-27T03:42:20.721Z,5.86
2019-04-27T03:44:50.302Z,5.89
2019-04-27T03:47:19.768Z,5.92
2019-04-27T03:49:50.607Z,5.95
2019-04-27T03:52:26.519Z,5.99
2019-04-27T03:55:10.302Z,6.13
2019-04-27T03:57:40.550Z,6.37
2019-04-27T04:00:16.594Z,6.50
2019-04-27T04:02:45.046Z,6.56
2019-04-27T04:05:13.725Z,6.74
2019-04-27T04:07:42.209Z,6.91
2019-04-27T04:10:11.101Z,7.05
2019-04-27T04:12:43.821Z,7.17
2019-04-27T04:15:14.059Z,7.32
2019-04-27T04:17:42.460Z,7.41
2019-04-27T04:20:11.089Z,7.42
2019-04-27T04:22:40.405Z,7.50
2019-04-27T04:25:10.736Z,7.65
2019-04-27T04:27:42.349Z,7.69
2019-04-27T04:30:12.278Z,7.67
2019-04-27T04:32:40.056Z,7.59
2019-04-27T04:35:21.387Z,7.56
2019-04-27T04:37:52.987Z,7.53
2019-04-27T04:40:23.201Z,7.48
2019-04-27T04:42:56.159Z,7.44
2019-04-27T04:45:39.304Z,7.41
2019-04-27T04:48:10.075Z,7.41
2019-04-27T04:50:39.604Z,7.38
2019-04-27T04:53:12.435Z,7.34
2019-04-27T04:55:39.291Z,7.31
2019-04-27T04:58:09.372Z,7.30
2019-04-27T05:00:40.083Z,7.32
2019-04-27T05:03:09.379Z,7.38
2019-04-27T05:05:41.109Z,7.41
2019-04-27T05:08:09.079Z,7.48
2019-04-27T05:10:39.529Z,7.53
2019-04-27T05:13:09.315Z,7.56
2019-04-27T05:15:39.413Z,7.68
2019-04-27T05:18:09.169Z,7.84
2019-04-27T05:20:39.760Z,7.85
2019-04-27T05:23:09.629Z,7.81
2019-04-27T05:25:39.081Z,7.75
2019-04-27T05:28:09.563Z,7.71
2019-04-27T05:30:39.083Z,7.64
2019-04-27T05:33:09.120Z,7.60
2019-04-27T05:35:40.606Z,7.54
2019-04-27T05:38:11.016Z,7.48
2019-04-27T05:40:39.884Z,7.43
2019-04-27T05:43:09.186Z,7.42
2019-04-27T05:46:12.265Z,7.45
2019-04-27T05:48:39.366Z,7.51
2019-04-27T05:51:09.197Z,7.56
2019-04-27T05:53:39.436Z,7.76
2019-04-27T05:56:09.267Z,7.96
2019-04-27T05:58:39.205Z,8.11
2019-04-27T06:01:09.594Z,8.26
2019-04-27T06:03:39.666Z,8.48
2019-04-27T06:06:09.720Z,8.59
2019-04-27T06:08:39.275Z,8.65
2019-04-27T06:11:09.442Z,8.72
2019-04-27T06:13:39.217Z,8.79
2019-04-27T06:16:09.408Z,8.88
2019-04-27T06:18:39.207Z,9.03
2019-04-27T06:21:09.598Z,9.12
2019-04-27T06:23:39.054Z,9.20
2019-04-27T06:26:09.212Z,9.28
2019-04-27T06:28:39.583Z,9.36
2019-04-27T06:31:08.777Z,9.43
2019-04-27T06:33:38.984Z,9.48
2019-04-27T06:36:07.431Z,9.49
2019-04-27T06:38:35.847Z,9.52
2019-04-27T06:41:04.245Z,9.53
2019-04-27T06:43:32.712Z,9.51
2019-04-27T06:46:01.124Z,9.44
2019-04-27T06:48:29.702Z,9.46
2019-04-27T06:51:03.632Z,9.46
2019-04-27T06:53:29.161Z,9.44
2019-04-27T06:55:58.605Z,9.55
2019-04-27T06:58:27.043Z,9.56
2019-04-27T07:00:55.512Z,9.55
2019-04-27T07:03:23.918Z,9.59
2019-04-27T07:05:52.296Z,9.60
2019-04-27T07:08:20.703Z,9.61
2019-04-27T07:10:49.188Z,9.60
2019-04-27T07:13:19.428Z,9.62
2019-04-27T07:15:48.565Z,9.44
2019-04-27T07:18:18.630Z,9.33
2019-04-27T07:20:48.513Z,9.32
2019-04-27T07:23:18.664Z,9.28
2019-04-27T07:25:48.692Z,9.29
2019-04-27T07:28:18.955Z,9.25
2019-04-27T07:30:48.763Z,9.21
2019-04-27T07:33:18.638Z,9.17
2019-04-27T07:35:48.947Z,9.09
2019-04-27T07:38:19.085Z,9.11
2019-04-27T07:40:48.843Z,9.13
2019-04-27T07:43:29.271Z,9.17
2019-04-27T07:45:59.069Z,9.16
2019-04-27T07:48:28.545Z,9.25
2019-04-27T07:50:57.042Z,9.23
2019-04-27T07:53:25.433Z,9.25
2019-04-27T07:55:53.809Z,9.30
2019-04-27T07:58:22.418Z,9.28
2019-04-27T08:00:51.077Z,9.28
2019-04-27T08:03:19.725Z,9.25
2019-04-27T08:05:49.117Z,9.22
2019-04-27T08:08:19.002Z,9.24
2019-04-27T08:10:48.422Z,9.28
2019-04-27T08:13:19.380Z,9.26
2019-04-27T08:15:49.490Z,9.31
2019-04-27T08:18:18.978Z,9.35
2019-04-27T08:20:49.106Z,9.39
2019-04-27T08:23:19.404Z,9.43
2019-04-27T08:25:48.967Z,9.45
2019-04-27T08:28:24.726Z,9.48
2019-04-27T08:31:00.530Z,9.44
2019-04-27T08:33:29.050Z,9.45
2019-04-27T08:35:59.094Z,9.48
2019-04-27T08:38:28.940Z,9.57
2019-04-27T08:40:59.149Z,9.56
2019-04-27T08:43:28.985Z,9.53
2019-04-27T08:45:58.727Z,9.57
2019-04-27T08:48:36.020Z,9.59
2019-04-27T08:50:59.342Z,9.58
2019-04-27T08:53:29.718Z,9.60
2019-04-27T08:55:59.210Z,9.63
2019-04-27T08:58:28.639Z,9.70
2019-04-27T09:00:58.920Z,9.72
2019-04-27T09:03:29.290Z,9.83
2019-04-27T09:05:59.017Z,9.92
2019-04-27T09:08:29.261Z,9.94
2019-04-27T09:10:59.275Z,9.95
2019-04-27T09:13:32.104Z,9.95
2019-04-27T09:16:09.301Z,10.01
2019-04-27T09:18:38.957Z,9.99
2019-04-27T09:21:08.778Z,9.98
2019-04-27T09:23:38.977Z,9.93
2019-04-27T09:26:07.448Z,9.86
2019-04-27T09:28:35.839Z,9.85
2019-04-27T09:31:04.766Z,9.77
2019-04-27T09:33:33.280Z,9.66
2019-04-27T09:36:01.598Z,9.78
2019-04-27T09:38:29.985Z,9.92
2019-04-27T09:40:58.387Z,10.02
2019-04-27T09:43:26.782Z,10.01
2019-04-27T09:45:55.764Z,10.04
2019-04-27T09:48:25.927Z,10.11
2019-04-27T09:50:55.992Z,10.10
2019-04-27T09:53:24.464Z,10.14
2019-04-27T09:55:52.877Z,10.24
2019-04-27T09:58:21.255Z,10.29
2019-04-27T10:00:49.644Z,10.24
2019-04-27T10:03:18.063Z,10.24
2019-04-27T10:05:46.439Z,10.19
2019-04-27T10:08:16.845Z,10.10
2019-04-27T10:10:45.989Z,10.03
2019-04-27T10:13:15.091Z,9.98
2019-04-27T10:15:43.486Z,10.04
2019-04-27T10:18:11.906Z,10.20
2019-04-27T10:20:40.998Z,10.38
2019-04-27T10:23:09.554Z,10.58
2019-04-27T10:25:38.037Z,10.78
2019-04-27T10:28:06.880Z,10.93
2019-04-27T10:30:35.943Z,10.98
2019-04-27T10:33:05.984Z,11.11
2019-04-27T10:35:36.261Z,11.28
2019-04-27T10:38:04.779Z,11.38
2019-04-27T10:40:33.195Z,11.55
2019-04-27T10:43:01.578Z,11.67
2019-04-27T10:45:29.961Z,11.76
2019-04-27T10:47:58.453Z,12.04
2019-04-27T10:50:26.899Z,12.05
2019-04-27T10:52:56.780Z,11.91
2019-04-27T10:55:26.230Z,11.74
2019-04-27T10:57:54.631Z,11.51
2019-04-27T11:00:25.649Z,11.44
2019-04-27T11:02:54.284Z,11.52
2019-04-27T11:05:39.137Z,11.42
2019-04-27T11:08:07.933Z,11.44
2019-04-27T11:10:36.321Z,11.49
2019-04-27T11:13:06.232Z,11.43
2019-04-27T11:15:34.751Z,11.54
2019-04-27T11:18:03.152Z,11.61
2019-04-27T11:20:31.823Z,11.68
2019-04-27T11:23:07.167Z,11.69
2019-04-27T11:25:30.633Z,11.61
2019-04-27T11:27:59.113Z,11.47
2019-04-27T11:30:27.644Z,11.37
2019-04-27T11:32:58.917Z,11.33
2019-04-27T11:35:36.960Z,11.36
2019-04-27T11:38:05.692Z,11.12
2019-04-27T11:40:34.098Z,11.01
2019-04-27T11:43:02.747Z,10.80
2019-04-27T11:45:31.624Z,10.81
2019-04-27T11:48:00.022Z,10.75
2019-04-27T11:50:28.456Z,10.92
2019-04-27T11:52:56.900Z,11.08
2019-04-27T11:55:27.158Z,11.28
2019-04-27T11:57:56.007Z,11.41
2019-04-27T12:00:25.047Z,11.42
2019-04-27T12:02:53.444Z,11.62
2019-04-27T12:05:22.388Z,12.04
2019-04-27T12:07:50.785Z,12.21
2019-04-27T12:10:19.449Z,12.46
2019-04-27T12:12:47.873Z,12.80
2019-04-27T12:15:17.307Z,12.72
2019-04-27T12:17:46.207Z,12.42
2019-04-27T12:20:16.008Z,12.32
2019-04-27T12:22:45.263Z,12.07
2019-04-27T12:25:14.114Z,12.05
2019-04-27T12:27:59.590Z,12.01
2019-04-27T12:30:38.572Z,11.96
2019-04-27T12:33:06.992Z,11.88
2019-04-27T12:35:36.865Z,12.13
2019-04-27T12:38:05.931Z,12.49
2019-04-27T12:40:34.403Z,12.77
2019-04-27T12:43:02.933Z,12.83
2019-04-27T12:45:31.314Z,12.83
2019-04-27T12:47:59.736Z,12.87
2019-04-27T12:50:28.200Z,12.94
2019-04-27T12:52:58.231Z,12.79
2019-04-27T12:55:28.274Z,12.68
2019-04-27T12:57:58.673Z,12.47
2019-04-27T13:00:28.787Z,12.44
2019-04-27T13:02:57.726Z,12.59
2019-04-27T13:05:26.583Z,12.66
2019-04-27T13:07:54.978Z,12.72
2019-04-27T13:10:23.396Z,13.03
2019-04-27T13:12:51.813Z,13.20
2019-04-27T13:15:20.725Z,13.36
2019-04-27T13:17:49.497Z,13.46
2019-04-27T13:20:18.123Z,13.48
2019-04-27T13:22:46.580Z,13.42
2019-04-27T13:25:15.424Z,13.36
2019-04-27T13:27:43.812Z,13.09
2019-04-27T13:30:12.839Z,12.82
2019-04-27T13:32:41.270Z,12.35
2019-04-27T13:35:10.111Z,11.63
2019-04-27T13:37:42.974Z,11.33
2019-04-27T13:40:13.716Z,10.88
2019-04-27T13:42:43.752Z,10.58
2019-04-27T13:45:29.190Z,10.46
2019-04-27T13:48:11.283Z,10.37
2019-04-27T13:50:45.651Z,10.36
2019-04-27T13:53:16.643Z,10.40
2019-04-27T13:55:46.458Z,10.46
2019-04-27T13:58:15.144Z,10.63
2019-04-27T14:00:43.539Z,11.05
2019-04-27T14:03:11.933Z,11.33
2019-04-27T14:05:40.341Z,11.56
2019-04-27T14:08:09.165Z,11.91
2019-04-27T14:10:38.676Z,12.05
2019-04-27T14:13:10.689Z,12.12
2019-04-27T14:15:38.876Z,12.04
2019-04-27T14:18:08.355Z,12.11
2019-04-27T14:20:38.812Z,12.12
2019-04-27T14:23:18.830Z,12.15
2019-04-27T14:25:47.301Z,12.05
2019-04-27T14:28:15.688Z,12.04
2019-04-27T14:30:44.066Z,12.15
2019-04-27T14:33:12.752Z,12.04
2019-04-27T14:35:41.166Z,12.07
2019-04-27T14:38:09.566Z,12.22
2019-04-27T14:40:39.234Z,12.23
2019-04-27T14:43:08.496Z,12.27
2019-04-27T14:45:38.140Z,12.20
2019-04-27T14:48:08.266Z,12.12
2019-04-27T14:50:40.253Z,12.03
2019-04-27T14:53:08.701Z,11.53
2019-04-27T14:55:38.766Z,11.01
2019-04-27T14:58:08.716Z,10.45
2019-04-27T15:00:38.435Z,10.23
2019-04-27T15:03:07.063Z,9.91
2019-04-27T15:05:35.444Z,9.78
2019-04-27T15:08:06.480Z,9.57
2019-04-27T15:10:36.104Z,9.45
2019-04-27T15:13:06.550Z,9.28
2019-04-27T15:15:35.006Z,9.03
2019-04-27T15:18:05.414Z,8.84
2019-04-27T15:20:46.692Z,8.69
2019-04-27T15:23:15.199Z,8.65
2019-04-27T15:25:46.838Z,8.97
2019-04-27T15:28:15.408Z,9.38
2019-04-27T15:30:54.296Z,10.51
2019-04-27T15:33:40.419Z,10.79
2019-04-27T15:36:14.540Z,10.71
2019-04-27T15:38:53.929Z,10.66
2019-04-27T15:41:28.773Z,10.53
2019-04-27T15:43:59.581Z,10.35
2019-04-27T15:46:33.627Z,10.23
2019-04-27T15:48:58.937Z,10.20
2019-04-27T15:51:28.292Z,9.84
2019-04-27T15:53:58.676Z,9.45
2019-04-27T15:56:30.530Z,9.20
2019-04-27T15:58:59.897Z,9.06
2019-04-27T16:01:31.221Z,8.87
2019-04-27T16:03:58.314Z,8.73
2019-04-27T16:06:28.197Z,8.54
2019-04-27T16:08:56.626Z,8.41
2019-04-27T16:11:25.126Z,8.42
2019-04-27T16:13:53.576Z,8.33
2019-04-27T16:16:24.558Z,8.31
2019-04-27T16:18:52.179Z,8.27
2019-04-27T16:21:20.885Z,8.32
2019-04-27T16:23:49.280Z,8.44
2019-04-27T16:26:18.322Z,8.48
2019-04-27T16:28:50.271Z,8.56
2019-04-27T16:31:18.608Z,8.67
2019-04-27T16:33:49.377Z,8.75
2019-04-27T16:36:17.272Z,8.89
2019-04-27T16:38:59.451Z,8.99
2019-04-27T16:41:28.194Z,9.10
2019-04-27T16:43:58.184Z,9.09
2019-04-27T16:46:28.522Z,9.13
2019-04-27T16:48:59.226Z,9.18
2019-04-27T16:51:33.276Z,9.26
2019-04-27T16:53:58.444Z,9.19
2019-04-27T16:56:28.515Z,9.19
2019-04-27T16:59:05.415Z,9.14
2019-04-27T17:01:30.355Z,9.19
2019-04-27T17:03:59.810Z,9.11
2019-04-27T17:06:29.546Z,9.10
2019-04-27T17:09:05.630Z,9.09
2019-04-27T17:11:29.793Z,9.12
2019-04-27T17:14:05.860Z,9.12
2019-04-27T17:16:41.924Z,9.16
2019-04-27T17:19:14.747Z,9.11
2019-04-27T17:21:43.799Z,9.12
2019-04-27T17:24:12.516Z,9.17
2019-04-27T17:26:43.467Z,9.14
2019-04-27T17:29:16.474Z,9.09
2019-04-27T17:31:44.701Z,8.99
2019-04-27T17:34:13.123Z,8.97
2019-04-27T17:36:41.511Z,8.91
2019-04-27T17:39:10.733Z,8.77
2019-04-27T17:41:42.170Z,8.73
2019-04-27T17:44:12.753Z,8.75
2019-04-27T17:46:42.633Z,8.63
2019-04-27T17:49:09.587Z,8.50
2019-04-27T17:51:42.886Z,8.48
2019-04-27T17:54:11.402Z,8.45
2019-04-27T17:56:48.379Z,8.36
2019-04-27T17:59:10.399Z,8.42
2019-04-27T18:01:38.946Z,8.53
2019-04-27T18:04:10.410Z,8.53
2019-04-27T18:06:39.050Z,8.54
2019-04-27T18:09:09.738Z,8.57
2019-04-27T18:11:38.493Z,8.54
2019-04-27T18:14:09.831Z,8.58
2019-04-27T18:16:38.058Z,8.61
2019-04-27T18:19:11.565Z,8.63
2019-04-27T18:21:39.949Z,8.69
2019-04-27T18:24:09.969Z,8.62
2019-04-27T18:26:49.056Z,8.62
2019-04-27T18:29:10.154Z,8.48
2019-04-27T18:31:38.550Z,8.37
2019-04-27T18:34:08.595Z,8.29
2019-04-27T18:36:39.481Z,8.19
2019-04-27T18:39:12.275Z,8.11
2019-04-27T18:41:44.357Z,8.02
2019-04-27T18:44:11.063Z,7.93
2019-04-27T18:46:38.871Z,7.91
2019-04-27T18:49:11.693Z,7.87
2019-04-27T18:51:44.404Z,7.89
2019-04-27T18:54:12.794Z,7.79
2019-04-27T18:56:41.671Z,7.71
2019-04-27T18:59:10.177Z,7.64
2019-04-27T19:01:38.571Z,7.56
2019-04-27T19:04:08.656Z,7.54
2019-04-27T19:06:38.983Z,7.49
2019-04-27T19:09:08.319Z,7.38
2019-04-27T19:11:38.278Z,7.30
2019-04-27T19:14:08.311Z,7.18
2019-04-27T19:16:38.404Z,7.12
2019-04-27T19:19:08.703Z,7.05
2019-04-27T19:21:38.894Z,7.02
2019-04-27T19:24:08.866Z,7.05
2019-04-27T19:26:41.783Z,6.98
2019-04-27T19:29:11.849Z,6.96
2019-04-27T19:31:45.190Z,6.92
2019-04-27T19:34:13.790Z,6.87
2019-04-27T19:36:42.433Z,6.85
2019-04-27T19:39:14.026Z,6.81
2019-04-27T19:41:42.646Z,6.86
2019-04-27T19:44:11.032Z,6.87
2019-04-27T19:46:40.277Z,6.90
2019-04-27T19:49:08.868Z,6.90
2019-04-27T19:51:39.140Z,6.98
2019-04-27T19:54:09.062Z,7.06
2019-04-27T19:56:38.363Z,7.06
2019-04-27T19:59:18.767Z,7.11
2019-04-27T20:01:49.197Z,7.03
2019-04-27T20:04:21.877Z,6.93
2019-04-27T20:06:50.283Z,6.78
2019-04-27T20:09:22.945Z,6.63
2019-04-27T20:11:51.329Z,6.55
2019-04-27T20:14:20.887Z,6.47
2019-04-27T20:16:49.408Z,6.36
2019-04-27T20:19:17.799Z,6.28
2019-04-27T20:21:46.188Z,6.21
2019-04-27T20:24:14.607Z,6.17
2019-04-27T20:26:42.994Z,6.17
2019-04-27T20:29:11.908Z,6.13
2019-04-27T20:31:41.111Z,6.11
2019-04-27T20:34:09.615Z,6.05
2019-04-27T20:36:38.001Z,6.00
2019-04-27T20:39:07.140Z,5.95
2019-04-27T20:41:35.539Z,5.87
2019-04-27T20:44:04.291Z,5.84
2019-04-27T20:46:32.692Z,5.85
2019-04-27T20:49:02.714Z,5.83
2019-04-27T20:51:51.017Z,5.83
2019-04-27T20:54:21.127Z,5.79
2019-04-27T20:56:51.576Z,5.83
2019-04-27T20:59:19.686Z,5.88
2019-04-27T21:01:48.076Z,5.81
2019-04-27T21:04:18.106Z,5.75
2019-04-27T21:06:48.176Z,5.69
2019-04-27T21:09:17.720Z,5.64
2019-04-27T21:11:46.788Z,5.60
2019-04-27T21:14:15.352Z,5.54
2019-04-27T21:16:43.814Z,5.47
2019-04-27T21:19:12.187Z,5.41
2019-04-27T21:21:42.761Z,5.47
2019-04-27T21:24:11.551Z,5.56
2019-04-27T21:26:41.818Z,5.60
2019-04-27T21:29:11.663Z,5.50
2019-04-27T21:31:41.808Z,5.44
2019-04-27T21:34:10.313Z,5.37
2019-04-27T21:36:40.842Z,5.31
2019-04-27T21:39:09.031Z,5.28
2019-04-27T21:41:37.428Z,5.24
2019-04-27T21:44:05.832Z,5.28
2019-04-27T21:46:34.944Z,5.33
2019-04-27T21:49:03.375Z,5.46
2019-04-27T21:51:33.476Z,5.60
2019-04-27T21:54:03.495Z,5.64
2019-04-27T21:56:31.893Z,5.66
2019-04-27T21:59:01.017Z,5.70
2019-04-27T22:01:31.854Z,5.68
2019-04-27T22:04:01.034Z,5.65
2019-04-27T22:06:29.576Z,5.57
2019-04-27T22:08:57.992Z,5.48
2019-04-27T22:11:26.453Z,5.43
2019-04-27T22:13:54.859Z,5.48
2019-04-27T22:16:23.250Z,5.62
2019-04-27T22:18:52.054Z,5.73
2019-04-27T22:21:21.617Z,5.82
2019-04-27T22:23:51.920Z,5.85
2019-04-27T22:26:21.366Z,5.79
2019-04-27T22:28:52.077Z,5.73
2019-04-27T22:31:21.219Z,5.63
2019-04-27T22:33:52.553Z,5.59
2019-04-27T22:36:21.181Z,5.56
2019-04-27T22:38:51.499Z,5.58
2019-04-27T22:41:24.074Z,5.52
2019-04-27T22:43:54.124Z,5.43
2019-04-27T22:46:33.107Z,5.34
2019-04-27T22:49:01.878Z,5.26
2019-04-27T22:51:30.381Z,5.08
2019-04-27T22:53:58.773Z,4.92
2019-04-27T22:56:27.246Z,4.77
2019-04-27T22:59:04.058Z,4.64
2019-04-27T23:01:37.941Z,4.53
2019-04-27T23:04:07.966Z,4.40
2019-04-27T23:06:36.354Z,4.43
2019-04-27T23:09:05.719Z,4.43
2019-04-27T23:11:34.106Z,4.45
2019-04-27T23:14:02.493Z,4.48
2019-04-27T23:16:32.539Z,4.52
2019-04-27T23:19:01.842Z,4.49
2019-04-27T23:21:31.277Z,4.45
2019-04-27T23:24:01.718Z,4.45
2019-04-27T23:26:31.257Z,4.40
2019-04-27T23:29:11.048Z,4.31
2019-04-27T23:31:31.995Z,4.11
2019-04-27T23:34:01.896Z,4.05
2019-04-27T23:36:31.688Z,4.01
2019-04-27T23:39:00.849Z,3.98
2019-04-27T23:41:29.356Z,3.96
2019-04-27T23:43:57.736Z,3.93
2019-04-27T23:46:26.220Z,3.94
2019-04-27T23:48:54.605Z,3.93
2019-04-27T23:51:27.065Z,3.89
2019-04-27T23:53:55.469Z,3.77
2019-04-27T23:56:24.125Z,3.66
2019-04-27T23:58:52.530Z,3.55
